Time;durP1;ratioP1;P1;durP2;ratioP2;P2;SDS_P1;SDS_P2;PMS_P1;PMS_P2;Temp;Humidity;BMP_temperature;BMP_pressure;BME280_temperature;BME280_humidity;BME280_pressure;Samples;Min_cycle;Max_cycle;Signal;HPM_P1;HPM_P2
2021/05/12 00:00:45;;;;;;;;;;;;;;;;;;;;;
2021/05/12 00:03:33;;;;;;;;;;;;;;;;;;4264008;33;20400;-88
2021/05/12 00:06:37;;;;;;;;;;;;;;;;;;4227025;33;20025;-88
2021/05/12 00:09:39;;;;;;;;;;;;;;;;;;4204532;33;20022;-88
2021/05/12 00:15:37;;;;;;;;;;;;;;;;;;;;;
2021/05/12 00:18:46;;;;;;;;;;;;;;;;;;4243924;33;19965;-89
2021/05/12 00:25:04;;;;;;;;;;;;;;;;;;4250988;33;20604;-91
2021/05/12 00:28:16;;;;;;;;;;;;;;;;;;4246735;33;20439;-89
2021/05/12 00:30:47;;;;;;;;;;;;;;;;;;4233841;33;19958;-90
2021/05/12 00:33:17;;;;;;;;;;;;;;;;;;4250142;33;19974;-89
2021/05/12 00:36:30;;;;;;;;;;;;;;;;;;4238925;33;20089;-84
2021/05/12 00:39:23;;;;;;;;;;;;;;;;;;4223830;33;19978;-89
2021/05/12 00:42:36;;;;;;;;;;;;;;;;;;4196169;33;20038;-88
2021/05/12 00:48:21;;;;;;;;;;;;;;;;;;4199828;34;20049;-89
2021/05/12 00:51:37;;;;;;;;;;;;;;;;;;4212041;33;19989;-90
2021/05/12 00:54:11;;;;;;;;;;;;;;;;;;4195782;33;20045;-89
2021/05/12 00:56:57;;;;;;;;;;;;;;;;;;4170228;34;19967;-88
2021/05/12 01:00:05;;;;;;;;;;;;;;;;;;4164847;34;19975;-89
2021/05/12 01:03:05;;;;;;;;;;;;;;;;;;4211132;33;19962;-89
2021/05/12 01:06:20;;;;;;;;;;;;;;;;;;4302711;33;19984;-88
2021/05/12 01:09:09;;;;;;;;;;;;;;;;;;4284474;33;19968;-86
2021/05/12 01:12:10;;;;;;;;;;;;;;;;;;4251748;33;20738;-90
2021/05/12 01:14:57;;;;;;;;;;;;;;;;;;4278598;33;20028;-90
2021/05/12 01:17:33;;;;;;;;;;;;;;;;;;4273614;33;20543;-91
2021/05/12 01:20:28;;;;;;;;;;;;;;;;;;4282731;33;19957;-88
2021/05/12 01:23:03;;;;;;;;;;;;;;;;;;4293578;33;20026;-91
2021/05/12 01:26:22;;;;;;;;;;;;;;;;;;4239698;33;19962;-91
2021/05/12 01:29:08;;;;;;;;;;;;;;;;;;4287044;33;21320;-88
2021/05/12 01:31:47;;;;;;;;;;;;;;;;;;4276835;33;19996;-86
2021/05/12 01:34:19;;;;;;;;;;;;;;;;;;4262744;33;20391;-90
2021/05/12 01:40:09;;;;;;;;;;;;;;;;;;4270451;33;19956;-90
2021/05/12 01:43:22;;;;;;;;;;;;;;;;;;4288747;33;20018;-88
2021/05/12 01:45:55;;;;;;;;;;;;;;;;;;4280095;33;19961;-88
2021/05/12 01:48:40;;;;;;;;;;;;;;;;;;4294764;33;19964;-87
2021/05/12 01:51:31;;;;;;;;;;;;;;;;;;4277621;33;20012;-89
2021/05/12 01:54:34;;;;;;;;;;;;;;;;;;4267907;33;20347;-89
2021/05/12 01:57:05;;;;;;;;;;;;;;;;;;4274558;33;20291;-87
2021/05/12 02:00:03;;;;;;;;;;;;;;;;;;4278483;33;20684;-87
2021/05/12 02:02:39;;;;;;;;;;;;;;;;;;4264344;33;20004;-89
2021/05/12 02:06:00;;;;;;;;;;;;;;;;;;4265475;33;19996;-91
2021/05/12 02:08:43;;;;;;;;;;;;;;;;;;4250812;33;20065;-89
2021/05/12 02:11:47;;;;;;;;;;;;;;;;;;4252894;33;19988;-89
2021/05/12 02:14:34;;;;;;;;;;;;;;;;;;4274902;33;19986;-88
2021/05/12 02:17:20;;;;;;;;;;;;;;;;;;4283189;33;20016;-90
2021/05/12 02:19:53;;;;;;;;;;;;;;;;;;4284640;33;20000;-90
2021/05/12 02:22:41;;;;;;;;;;;;;;;;;;4280867;33;20050;-90
2021/05/12 02:28:00;;;;;;;;;;;;;;;;;;4280179;33;19974;-90
2021/05/12 02:30:34;;;;;;;;;;;;;;;;;;4283968;33;20035;-89
2021/05/12 02:39:20;;;;;;;;;;;;;;;;;;4280201;33;20000;-88
2021/05/12 02:42:17;;;;;;;;;;;;;;;;;;4216770;34;20066;-89
2021/05/12 02:45:19;;;;;;;;;;;;;;;;;;4204793;34;19994;-88
2021/05/12 02:48:08;;;;;;;;;;;;;;;;;;4220735;34;20366;-87
2021/05/12 02:50:49;;;;;;;;;;;;;;;;;;4206320;33;20400;-88
2021/05/12 02:53:22;;;;;;;;;;;;;;;;;;4217992;33;20223;-88
2021/05/12 02:55:54;;;;;;;;;;;;;;;;;;4215398;33;20543;-88
2021/05/12 02:58:33;;;;;;;;;;;;;;;;;;4212404;33;20360;-90
2021/05/12 03:01:36;;;;;;;;;;;;;;;;;;4282841;33;20008;-88
2021/05/12 03:04:11;;;;;;;;;;;;;;;;;;4298787;33;20009;-89
2021/05/12 03:09:56;;;;;;;;;;;;;;;;;;4277625;33;20040;-89
2021/05/12 03:12:31;;;;;;;;;;;;;;;;;;4326318;28;19956;-92
2021/05/12 03:15:02;;;;;;;;;;;;;;;;;;4302959;33;19995;-93
2021/05/12 03:17:30;;;;;;;;;;;;;;;;;;4303499;33;19967;-92
2021/05/12 03:19:59;;;;;;;;;;;;;;;;;;4306620;33;19974;-94
2021/05/12 03:22:27;;;;;;;;;;;;;;;;;;4310340;33;19998;-94
2021/05/12 03:25:01;;;;;;;;;;;;;;;;;;4319924;33;19956;-92
2021/05/12 03:27:31;;;;;;;;;;;;;;;;;;4301513;33;20066;-93
2021/05/12 03:30:02;;;;;;;;;;;;;;;;;;4298208;33;20030;-93
2021/05/12 03:32:30;;;;;;;;;;;;;;;;;;4298598;33;19952;-93
2021/05/12 03:35:03;;;;;;;;;;;;;;;;;;4298229;33;19963;-94
2021/05/12 03:37:34;;;;;;;;;;;;;;;;;;4302675;33;20424;-94
2021/05/12 03:40:02;;;;;;;;;;;;;;;;;;4305586;33;20372;-94
2021/05/12 03:42:31;;;;;;;;;;;;;;;;;;4308812;33;20368;-93
2021/05/12 03:45:01;;;;;;;;;;;;;;;;;;4306571;33;19955;-93
2021/05/12 03:47:31;;;;;;;;;;;;;;;;;;4296106;33;20370;-94
2021/05/12 03:50:05;;;;;;;;;;;;;;;;;;4297599;33;19944;-93
2021/05/12 03:52:35;;;;;;;;;;;;;;;;;;4299200;33;19953;-93
2021/05/12 03:55:04;;;;;;;;;;;;;;;;;;4326784;33;19956;-94
2021/05/12 03:57:39;;;;;;;;;;;;;;;;;;4303517;33;19952;-94
2021/05/12 04:00:12;;;;;;;;;;;;;;;;;;4316363;33;19948;-93
2021/05/12 04:02:45;;;;;;;;;;;;;;;;;;4302606;33;19968;-93
2021/05/12 04:05:16;;;;;;;;;;;;;;;;;;4308857;33;20019;-93
2021/05/12 04:07:50;;;;;;;;;;;;;;;;;;4315573;33;19963;-93
2021/05/12 04:10:18;;;;;;;;;;;;;;;;;;4303660;33;19987;-93
2021/05/12 04:12:52;;;;;;;;;;;;;;;;;;4305608;33;20010;-93
2021/05/12 04:15:26;;;;;;;;;;;;;;;;;;4311318;33;19953;-94
2021/05/12 04:17:55;;;;;;;;;;;;;;;;;;4308740;33;19990;-93
2021/05/12 04:20:37;;;;;;;;;;;;;;;;;;4312573;33;20242;-94
2021/05/12 04:23:09;;;;;;;;;;;;;;;;;;4304484;33;19952;-95
2021/05/12 04:25:45;;;;;;;;;;;;;;;;;;4300526;33;19975;-94
2021/05/12 04:28:15;;;;;;;;;;;;;;;;;;4310146;33;20052;-93
2021/05/12 04:31:02;;;;;;;;;;;;;;;;;;4317146;33;19956;-96
2021/05/12 04:33:34;;;;;;;;;;;;;;;;;;4315076;33;20320;-91
2021/05/12 04:36:04;;;;;;;;;;;;;;;;;;4312816;33;19965;-93
2021/05/12 04:38:35;;;;;;;;;;;;;;;;;;4293311;33;20306;-92
2021/05/12 04:41:04;;;;;;;;;;;;;;;;;;4306536;33;19982;-94
2021/05/12 04:43:33;;;;;;;;;;;;;;;;;;4297786;33;20322;-93
2021/05/12 04:46:03;;;;;;;;;;;;;;;;;;4310182;33;19948;-93
2021/05/12 04:48:34;;;;;;;;;;;;;;;;;;4303251;33;19944;-94
2021/05/12 04:51:02;;;;;;;;;;;;;;;;;;4305357;33;20013;-95
2021/05/12 04:53:33;;;;;;;;;;;;;;;;;;4302804;33;20409;-92
2021/05/12 04:56:03;;;;;;;;;;;;;;;;;;4316658;33;20021;-92
2021/05/12 04:58:34;;;;;;;;;;;;;;;;;;4310989;33;19963;-93
2021/05/12 05:01:05;;;;;;;;;;;;;;;;;;4302022;33;19953;-92
2021/05/12 05:03:41;;;;;;;;;;;;;;;;;;4315237;33;20635;-90
2021/05/12 05:06:12;;;;;;;;;;;;;;;;;;4313964;33;19987;-94
2021/05/12 05:08:43;;;;;;;;;;;;;;;;;;4306070;33;20325;-93
2021/05/12 05:11:16;;;;;;;;;;;;;;;;;;4303739;33;19956;-94
2021/05/12 05:13:47;;;;;;;;;;;;;;;;;;4301784;33;19953;-94
2021/05/12 05:16:17;;;;;;;;;;;;;;;;;;4303852;33;20004;-93
2021/05/12 05:18:48;;;;;;;;;;;;;;;;;;4312443;33;20372;-94
2021/05/12 05:21:16;;;;;;;;;;;;;;;;;;4302406;33;20372;-93
2021/05/12 05:23:44;;;;;;;;;;;;;;;;;;4292771;33;20010;-94
2021/05/12 05:26:14;;;;;;;;;;;;;;;;;;4307610;33;19945;-94
2021/05/12 05:28:43;;;;;;;;;;;;;;;;;;4296531;33;19984;-93
2021/05/12 05:31:11;;;;;;;;;;;;;;;;;;4310778;33;19967;-94
2021/05/12 05:33:54;;;;;;;;;;;;;;;;;;4314304;33;19964;-92
2021/05/12 05:36:39;;;;;;;;;;;;;;;;;;4266304;33;19980;-93
2021/05/12 05:39:38;;;;;;;;;;;;;;;;;;4247694;33;19955;-93
2021/05/12 05:42:21;;;;;;;;;;;;;;;;;;4265148;33;19949;-94
2021/05/12 05:45:13;;;;;;;;;;;;;;;;;;4286051;33;20023;-94
2021/05/12 05:48:17;;;;;;;;;;;;;;;;;;4258715;33;19984;-92
2021/05/12 05:51:02;;;;;;;;;;;;;;;;;;4259917;33;20004;-96
2021/05/12 05:53:57;;;;;;;;;;;;;;;;;;4274017;33;20366;-95
2021/05/12 05:56:46;;;;;;;;;;;;;;;;;;4303059;33;19979;-93
2021/05/12 05:59:40;;;;;;;;;;;;;;;;;;4271537;33;20047;-92
2021/05/12 06:02:26;;;;;;;;;;;;;;;;;;4286753;33;20034;-92
2021/05/12 06:05:11;;;;;;;;;;;;;;;;;;4313530;33;19968;-94
2021/05/12 06:08:05;;;;;;;;;;;;;;;;;;4296183;33;19988;-96
2021/05/12 06:10:54;;;;;;;;;;;;;;;;;;4304448;33;19956;-94
2021/05/12 06:13:58;;;;;;;;;;;;;;;;;;4284709;33;20024;-93
2021/05/12 06:16:43;;;;;;;;;;;;;;;;;;4291905;33;19963;-93
2021/05/12 06:19:37;;;;;;;;;;;;;;;;;;4280929;33;20243;-94
2021/05/12 06:22:31;;;;;;;;;;;;;;;;;;4275737;33;19977;-92
2021/05/12 06:25:19;;;;;;;;;;;;;;;;;;4288392;33;20365;-93
2021/05/12 06:28:08;;;;;;;;;;;;;;;;;;4304655;33;19960;-94
2021/05/12 06:31:06;;;;;;;;;;;;;;;;;;4286662;33;19945;-91
2021/05/12 06:33:55;;;;;;;;;;;;;;;;;;4316841;33;19995;-93
2021/05/12 06:36:50;;;;;;;;;;;;;;;;;;4254106;33;19969;-94
2021/05/12 06:39:42;;;;;;;;;;;;;;;;;;4309149;33;19956;-94
2021/05/12 06:42:19;;;;;;;;;;;;;;;;;;4303292;33;19980;-93
2021/05/12 06:44:56;;;;;;;;;;;;;;;;;;4294676;33;20031;-93
2021/05/12 06:47:37;;;;;;;;;;;;;;;;;;4305045;33;19964;-93
2021/05/12 06:50:05;;;;;;;;;;;;;;;;;;4301379;33;20041;-92
2021/05/12 06:52:46;;;;;;;;;;;;;;;;;;4301955;33;20023;-95
2021/05/12 06:55:17;;;;;;;;;;;;;;;;;;4317908;33;19960;-93
2021/05/12 06:57:51;;;;;;;;;;;;;;;;;;4306184;33;19982;-94
2021/05/12 07:00:27;;;;;;;;;;;;;;;;;;4316239;33;19970;-94
2021/05/12 07:03:00;;;;;;;;;;;;;;;;;;4307898;33;19964;-94
2021/05/12 07:05:34;;;;;;;;;;;;;;;;;;4316912;33;20270;-94
2021/05/12 07:08:09;;;;;;;;;;;;;;;;;;4304231;33;20041;-94
2021/05/12 07:10:38;;;;;;;;;;;;;;;;;;4300700;33;19945;-95
2021/05/12 07:13:21;;;;;;;;;;;;;;;;;;4316912;33;20040;-94
2021/05/12 07:16:01;;;;;;;;;;;;;;;;;;4312273;33;19963;-92
2021/05/12 07:18:33;;;;;;;;;;;;;;;;;;4316748;33;20021;-92
2021/05/12 07:21:04;;;;;;;;;;;;;;;;;;4310666;33;19956;-92
2021/05/12 07:23:53;;;;;;;;;;;;;;;;;;4298167;33;19995;-94
2021/05/12 07:26:23;;;;;;;;;;;;;;;;;;4294880;33;19956;-94
2021/05/12 07:28:55;;;;;;;;;;;;;;;;;;4302942;33;19978;-92
2021/05/12 07:31:27;;;;;;;;;;;;;;;;;;4312684;33;19958;-93
2021/05/12 07:34:10;;;;;;;;;;;;;;;;;;4300919;33;19972;-93
2021/05/12 07:36:43;;;;;;;;;;;;;;;;;;4308132;33;20019;-93
2021/05/12 07:39:12;;;;;;;;;;;;;;;;;;4304446;33;19944;-94
2021/05/12 07:41:47;;;;;;;;;;;;;;;;;;4319585;33;19970;-94
2021/05/12 07:44:20;;;;;;;;;;;;;;;;;;4325570;33;19962;-93
2021/05/12 07:46:54;;;;;;;;;;;;;;;;;;4315359;33;19991;-93
2021/05/12 07:49:25;;;;;;;;;;;;;;;;;;4311279;33;19967;-93
2021/05/12 07:51:56;;;;;;;;;;;;;;;;;;4320036;33;19979;-94
2021/05/12 07:54:33;;;;;;;;;;;;;;;;;;4299239;33;20023;-94
2021/05/12 07:57:02;;;;;;;;;;;;;;;;;;4296341;33;19959;-95
2021/05/12 07:59:33;;;;;;;;;;;;;;;;;;4310296;33;19952;-94
2021/05/12 08:02:07;;;;;;;;;;;;;;;;;;4310559;33;19955;-93
2021/05/12 08:04:36;;;;;;;;;;;;;;;;;;4318361;33;19952;-94
2021/05/12 08:07:15;;;;;;;;;;;;;;;;;;4322322;33;19964;-93
2021/05/12 08:09:44;;;;;;;;;;;;;;;;;;4325914;33;19985;-94
2021/05/12 08:12:13;;;;;;;;;;;;;;;;;;4306711;33;20376;-94
2021/05/12 08:14:43;;;;;;;;;;;;;;;;;;4302961;33;20006;-94
2021/05/12 08:17:12;;;;;;;;;;;;;;;;;;4304425;33;19967;-93
2021/05/12 08:19:43;;;;;;;;;;;;;;;;;;4323338;33;19968;-91
2021/05/12 08:22:15;;;;;;;;;;;;;;;;;;4317101;33;20816;-92
2021/05/12 08:25:00;;;;;;;;;;;;;;;;;;4307936;33;19956;-92
2021/05/12 08:27:33;;;;;;;;;;;;;;;;;;4307177;33;19964;-94
2021/05/12 08:30:08;;;;;;;;;;;;;;;;;;4302533;33;19957;-94
2021/05/12 08:32:38;;;;;;;;;;;;;;;;;;4307065;33;19944;-94
2021/05/12 08:35:09;;;;;;;;;;;;;;;;;;4308734;33;19956;-93
2021/05/12 08:37:49;;;;;;;;;;;;;;;;;;4306107;33;20003;-94
2021/05/12 08:40:20;;;;;;;;;;;;;;;;;;4301233;33;19984;-94
2021/05/12 08:43:09;;;;;;;;;;;;;;;;;;4306807;33;19948;-93
2021/05/12 08:45:45;;;;;;;;;;;;;;;;;;4308810;33;20329;-94
2021/05/12 08:48:17;;;;;;;;;;;;;;;;;;4307518;33;19948;-94
2021/05/12 08:50:53;;;;;;;;;;;;;;;;;;4316753;33;19966;-95
2021/05/12 08:53:22;;;;;;;;;;;;;;;;;;4304874;33;19990;-94
2021/05/12 08:55:55;;;;;;;;;;;;;;;;;;4305029;33;19956;-93
2021/05/12 08:58:24;;;;;;;;;;;;;;;;;;4304518;33;19957;-96
2021/05/12 09:01:04;;;;;;;;;;;;;;;;;;4306740;33;19953;-96
2021/05/12 09:03:32;;;;;;;;;;;;;;;;;;4316971;33;19951;-95
2021/05/12 09:06:01;;;;;;;;;;;;;;;;;;4304109;33;19964;-93
2021/05/12 09:08:31;;;;;;;;;;;;;;;;;;4305346;33;20321;-92
2021/05/12 09:11:02;;;;;;;;;;;;;;;;;;4307264;33;20017;-93
2021/05/12 09:13:38;;;;;;;;;;;;;;;;;;4303695;33;20028;-94
2021/05/12 09:16:09;;;;;;;;;;;;;;;;;;4317657;33;19968;-94
2021/05/12 09:18:44;;;;;;;;;;;;;;;;;;4301221;33;19999;-94
2021/05/12 09:21:13;;;;;;;;;;;;;;;;;;4295500;33;20000;-93
2021/05/12 09:23:48;;;;;;;;;;;;;;;;;;4304378;33;19956;-93
2021/05/12 09:26:21;;;;;;;;;;;;;;;;;;4312954;33;21062;-92
2021/05/12 09:28:52;;;;;;;;;;;;;;;;;;4309424;33;19963;-93
2021/05/12 09:31:23;;;;;;;;;;;;;;;;;;4294069;33;19960;-94
2021/05/12 09:33:52;;;;;;;;;;;;;;;;;;4284326;33;19964;-93
2021/05/12 09:36:24;;;;;;;;;;;;;;;;;;4300923;33;19968;-92
2021/05/12 09:38:55;;;;;;;;;;;;;;;;;;4311352;33;19995;-93
2021/05/12 09:41:27;;;;;;;;;;;;;;;;;;4306088;33;19972;-92
2021/05/12 09:43:58;;;;;;;;;;;;;;;;;;4303163;33;19956;-93
2021/05/12 09:46:32;;;;;;;;;;;;;;;;;;4324879;33;19948;-94
2021/05/12 09:49:02;;;;;;;;;;;;;;;;;;4312493;33;19971;-93
2021/05/12 09:51:31;;;;;;;;;;;;;;;;;;4313903;33;20380;-92
2021/05/12 09:54:01;;;;;;;;;;;;;;;;;;4302425;33;19962;-94
2021/05/12 09:56:29;;;;;;;;;;;;;;;;;;4303345;33;20332;-93
2021/05/12 09:58:59;;;;;;;;;;;;;;;;;;4306198;33;20478;-93
2021/05/12 10:01:27;;;;;;;;;;;;;;;;;;4303996;33;20007;-92
2021/05/12 10:03:58;;;;;;;;;;;;;;;;;;4322180;33;19983;-92
2021/05/12 10:06:27;;;;;;;;;;;;;;;;;;4310152;33;19965;-93
2021/05/12 10:08:56;;;;;;;;;;;;;;;;;;4305974;33;20063;-90
2021/05/12 10:11:26;;;;;;;;;;;;;;;;;;4295399;33;19976;-93
2021/05/12 10:13:54;;;;;;;;;;;;;;;;;;4290890;33;20012;-93
2021/05/12 10:16:23;;;;;;;;;;;;;;;;;;4299746;33;20067;-94
2021/05/12 10:18:53;;;;;;;;;;;;;;;;;;4308026;33;20003;-94
2021/05/12 10:21:24;;;;;;;;;;;;;;;;;;4321754;33;19948;-92
2021/05/12 10:23:55;;;;;;;;;;;;;;;;;;4301001;33;20334;-94
2021/05/12 10:26:23;;;;;;;;;;;;;;;;;;4304905;33;20010;-94
2021/05/12 10:28:54;;;;;;;;;;;;;;;;;;4310390;33;20003;-94
2021/05/12 10:31:26;;;;;;;;;;;;;;;;;;4299060;33;19956;-94
2021/05/12 10:33:57;;;;;;;;;;;;;;;;;;4299669;33;19961;-94
2021/05/12 10:36:25;;;;;;;;;;;;;;;;;;4297046;33;20405;-95
2021/05/12 10:38:56;;;;;;;;;;;;;;;;;;4306828;33;20007;-95
2021/05/12 10:41:25;;;;;;;;;;;;;;;;;;4295367;33;20392;-95
2021/05/12 10:43:56;;;;;;;;;;;;;;;;;;4297420;33;20056;-92
2021/05/12 10:46:29;;;;;;;;;;;;;;;;;;4304563;33;20743;-94
2021/05/12 10:49:01;;;;;;;;;;;;;;;;;;4298800;33;19972;-95
2021/05/12 10:51:31;;;;;;;;;;;;;;;;;;4315460;33;19948;-96
2021/05/12 10:54:02;;;;;;;;;;;;;;;;;;4302373;33;20307;-95
2021/05/12 10:56:33;;;;;;;;;;;;;;;;;;4307450;33;19953;-96
2021/05/12 10:59:03;;;;;;;;;;;;;;;;;;4300688;33;19965;-96
2021/05/12 11:01:31;;;;;;;;;;;;;;;;;;4308068;33;20066;-94
2021/05/12 11:04:02;;;;;;;;;;;;;;;;;;4296469;33;19949;-96
2021/05/12 11:06:33;;;;;;;;;;;;;;;;;;4310928;33;20047;-96
2021/05/12 11:09:10;;;;;;;;;;;;;;;;;;4302291;33;20359;-96
2021/05/12 11:11:42;;;;;;;;;;;;;;;;;;4299574;33;19968;-94
2021/05/12 11:14:13;;;;;;;;;;;;;;;;;;4300517;33;20509;-95
2021/05/12 11:16:43;;;;;;;;;;;;;;;;;;4312408;33;19960;-94
2021/05/12 11:19:15;;;;;;;;;;;;;;;;;;4301294;33;19957;-96
2021/05/12 11:21:51;;;;;;;;;;;;;;;;;;4302329;33;20004;-96
2021/05/12 11:24:25;;;;;;;;;;;;;;;;;;4301457;33;19961;-96
2021/05/12 11:27:04;;;;;;;;;;;;;;;;;;4309925;33;19956;-96
2021/05/12 11:32:21;;;;;;;;;;;;;;;;;;4311187;33;20079;-95
2021/05/12 11:34:50;;;;;;;;;;;;;;;;;;4306695;33;19968;-94
2021/05/12 11:37:22;;;;;;;;;;;;;;;;;;4294837;33;19945;-95
2021/05/12 11:39:57;;;;;;;;;;;;;;;;;;4326914;33;20039;-96
2021/05/12 11:42:32;;;;;;;;;;;;;;;;;;4303910;33;19979;-96
2021/05/12 11:45:03;;;;;;;;;;;;;;;;;;4304227;33;19961;-95
2021/05/12 11:47:34;;;;;;;;;;;;;;;;;;4303958;33;20087;-96
2021/05/12 11:50:10;;;;;;;;;;;;;;;;;;4303377;33;19964;-96
2021/05/12 11:52:50;;;;;;;;;;;;;;;;;;4303265;33;19992;-94
2021/05/12 11:55:21;;;;;;;;;;;;;;;;;;4299931;33;19949;-96
2021/05/12 11:57:52;;;;;;;;;;;;;;;;;;4305008;33;20397;-96
2021/05/12 12:00:24;;;;;;;;;;;;;;;;;;4304383;33;20402;-96
2021/05/12 12:02:55;;;;;;;;;;;;;;;;;;4305048;33;20310;-96
2021/05/12 12:05:24;;;;;;;;;;;;;;;;;;4317075;33;19987;-96
2021/05/12 12:07:55;;;;;;;;;;;;;;;;;;4299108;33;20066;-95
2021/05/12 12:10:26;;;;;;;;;;;;;;;;;;4298259;33;20020;-95
2021/05/12 12:12:59;;;;;;;;;;;;;;;;;;4304394;33;20030;-95
2021/05/12 12:15:30;;;;;;;;;;;;;;;;;;4305162;33;20015;-96
2021/05/12 12:17:58;;;;;;;;;;;;;;;;;;4317016;33;19975;-95
2021/05/12 12:20:27;;;;;;;;;;;;;;;;;;4309699;33;20055;-95
2021/05/12 12:22:58;;;;;;;;;;;;;;;;;;4304996;33;20294;-95
2021/05/12 12:25:39;;;;;;;;;;;;;;;;;;4300547;33;19957;-96
2021/05/12 12:28:10;;;;;;;;;;;;;;;;;;4291571;33;19972;-96
2021/05/12 12:30:41;;;;;;;;;;;;;;;;;;4303790;33;20274;-94
2021/05/12 12:33:23;;;;;;;;;;;;;;;;;;4314985;33;20011;-95
2021/05/12 12:35:54;;;;;;;;;;;;;;;;;;4315489;33;19948;-96
2021/05/12 12:38:30;;;;;;;;;;;;;;;;;;4303812;33;20423;-94
2021/05/12 12:40:59;;;;;;;;;;;;;;;;;;4299779;33;19956;-95
2021/05/12 12:43:27;;;;;;;;;;;;;;;;;;4303394;33;20406;-95
2021/05/12 12:45:56;;;;;;;;;;;;;;;;;;4303736;33;19987;-96
2021/05/12 12:48:24;;;;;;;;;;;;;;;;;;4303653;33;20007;-96
2021/05/12 12:50:55;;;;;;;;;;;;;;;;;;4302951;33;19959;-94
2021/05/12 12:53:29;;;;;;;;;;;;;;;;;;4300777;33;20393;-96
2021/05/12 12:55:59;;;;;;;;;;;;;;;;;;4303024;33;19956;-94
2021/05/12 12:58:28;;;;;;;;;;;;;;;;;;4303943;33;19988;-96
2021/05/12 13:00:59;;;;;;;;;;;;;;;;;;4302688;33;19971;-95
2021/05/12 13:03:29;;;;;;;;;;;;;;;;;;4308652;33;19948;-95
2021/05/12 13:05:59;;;;;;;;;;;;;;;;;;4302790;33;19953;-96
2021/05/12 13:08:31;;;;;;;;;;;;;;;;;;4304413;33;19964;-96
2021/05/12 13:11:02;;;;;;;;;;;;;;;;;;4303624;33;19980;-95
2021/05/12 13:13:34;;;;;;;;;;;;;;;;;;4306504;33;19952;-96
2021/05/12 13:16:02;;;;;;;;;;;;;;;;;;4305931;33;19983;-95
2021/05/12 13:18:33;;;;;;;;;;;;;;;;;;4304031;33;20053;-95
2021/05/12 13:21:06;;;;;;;;;;;;;;;;;;4303705;33;19961;-94
2021/05/12 13:23:34;;;;;;;;;;;;;;;;;;4314516;33;19948;-93
2021/05/12 13:26:08;;;;;;;;;;;;;;;;;;4299659;33;19967;-94
2021/05/12 13:28:40;;;;;;;;;;;;;;;;;;4313715;33;19999;-95
2021/05/12 13:31:11;;;;;;;;;;;;;;;;;;4307216;33;19979;-92
2021/05/12 13:33:48;;;;;;;;;;;;;;;;;;4297615;33;20293;-94
2021/05/12 13:36:16;;;;;;;;;;;;;;;;;;4300814;33;19956;-93
2021/05/12 13:38:47;;;;;;;;;;;;;;;;;;4291819;33;19999;-93
2021/05/12 13:41:18;;;;;;;;;;;;;;;;;;4304197;33;20050;-92
2021/05/12 13:43:46;;;;;;;;;;;;;;;;;;4317196;33;19962;-94
2021/05/12 13:46:18;;;;;;;;;;;;;;;;;;4306138;33;19999;-95
2021/05/12 13:48:49;;;;;;;;;;;;;;;;;;4305641;33;20010;-95
2021/05/12 13:51:17;;;;;;;;;;;;;;;;;;4309446;33;20317;-94
2021/05/12 13:56:28;;;;;;;;;;;;;;;;;;4311578;33;20691;-94
2021/05/12 13:59:33;;;;;;;;;;;;;;;;;;4312660;33;19948;-93
2021/05/12 14:02:21;;;;;;;;;;;;;;;;;;4309147;33;20269;-93
2021/05/12 14:05:00;;;;;;;;;;;;;;;;;;4302693;33;20015;-95
2021/05/12 14:07:36;;;;;;;;;;;;;;;;;;4317729;33;19952;-95
2021/05/12 14:10:08;;;;;;;;;;;;;;;;;;4311573;33;20026;-94
2021/05/12 14:12:43;;;;;;;;;;;;;;;;;;4305231;33;19959;-93
2021/05/12 14:16:05;;;;;;;;;;;;;;;;;;4321097;33;19995;-93
2021/05/12 14:18:09;;;;;;;;;;;;;;;;;;4313889;33;20003;-94
2021/05/12 14:20:48;;;;;;;;;;;;;;;;;;4307920;33;19995;-93
2021/05/12 14:23:18;;;;;;;;;;;;;;;;;;4311055;33;19976;-93
2021/05/12 14:25:50;;;;;;;;;;;;;;;;;;4294236;33;19967;-93
2021/05/12 14:28:25;;;;;;;;;;;;;;;;;;4305356;33;19975;-94
2021/05/12 14:30:56;;;;;;;;;;;;;;;;;;4303945;33;19968;-94
2021/05/12 14:33:36;;;;;;;;;;;;;;;;;;4313603;33;19948;-94
2021/05/12 14:36:04;;;;;;;;;;;;;;;;;;4305036;33;19956;-93
2021/05/12 14:38:38;;;;;;;;;;;;;;;;;;4299374;33;20007;-94
2021/05/12 14:41:09;;;;;;;;;;;;;;;;;;4314165;33;19992;-94
2021/05/12 14:43:38;;;;;;;;;;;;;;;;;;4316580;33;20026;-94
2021/05/12 14:46:06;;;;;;;;;;;;;;;;;;4301472;33;20391;-94
2021/05/12 14:48:42;;;;;;;;;;;;;;;;;;4326187;33;20063;-94
2021/05/12 14:51:18;;;;;;;;;;;;;;;;;;4311529;33;20630;-93
2021/05/12 14:53:57;;;;;;;;;;;;;;;;;;4313986;33;20321;-96
2021/05/12 15:09:02;;;;;;;;;;;;;;;;;;4313713;33;19959;-96
2021/05/12 15:12:08;;;;;;;;;;;;;;;;;;4261645;33;19992;-96
2021/05/12 15:18:45;;;;;;;;;;;;;;;;;;4218890;33;19987;-95
2021/05/12 15:21:43;;;;;;;;;;;;;;;;;;4241205;33;19965;-95
2021/05/12 15:28:24;;;;;;;;;;;;;;;;;;4242512;33;19983;-96
2021/05/12 15:31:22;;;;;;;;;;;;;;;;;;4245755;33;19995;-95
2021/05/12 15:38:28;;;;;;;;;;;;;;;;;;4233051;33;20474;-96
2021/05/12 15:41:58;;;;;;;;;;;;;;;;;;4180273;34;19971;-95
2021/05/12 15:45:07;;;;;;;;;;;;;;;;;;4189778;34;19963;-95
2021/05/12 15:48:16;;;;;;;;;;;;;;;;;;;;;
2021/05/12 16:06:09;;;;;;;;;;;;;;;;;;4219164;34;19975;-96
2021/05/12 16:09:30;;;;;;;;;;;;;;;;;;4207227;34;19977;-96
2021/05/12 16:29:39;;;;;;;;;;;;;;;;;;4575465;29;20299;-89
2021/05/12 16:32:16;;;;;;;;;;;;;;;;;;4188787;34;19982;-84
2021/05/12 16:34:47;;;;;;;;;;;;;;;;;;4180857;34;20482;-89
2021/05/12 16:37:20;;;;;;;;;;;;;;;;;;4191186;34;20336;-86
2021/05/12 16:39:52;;;;;;;;;;;;;;;;;;4215706;33;20282;-86
2021/05/12 16:42:23;;;;;;;;;;;;;;;;;;4221560;33;20392;-85
2021/05/12 16:44:55;;;;;;;;;;;;;;;;;;4243120;33;20204;-88
2021/05/12 16:47:23;;;;;;;;;;;;;;;;;;4256504;33;20337;-91
2021/05/12 16:49:59;;;;;;;;;;;;;;;;;;4266345;33;19962;-87
2021/05/12 16:52:27;;;;;;;;;;;;;;;;;;4253126;33;19988;-90
2021/05/12 16:54:58;;;;;;;;;;;;;;;;;;4262636;33;20392;-87
2021/05/12 16:57:31;;;;;;;;;;;;;;;;;;4247662;33;19965;-89
2021/05/12 17:00:04;;;;;;;;;;;;;;;;;;4272912;33;19961;-88
2021/05/12 17:02:35;;;;;;;;;;;;;;;;;;4264595;33;20380;-84
2021/05/12 17:05:06;;;;;;;;;;;;;;;;;;4255134;33;20350;-85
2021/05/12 17:07:35;;;;;;;;;;;;;;;;;;4249833;33;19950;-87
2021/05/12 17:10:07;;;;;;;;;;;;;;;;;;4250155;33;20016;-85
2021/05/12 17:12:42;;;;;;;;;;;;;;;;;;4256962;33;19957;-87
2021/05/12 17:15:22;;;;;;;;;;;;;;;;;;4266978;33;20175;-89
2021/05/12 17:17:59;;;;;;;;;;;;;;;;;;4248106;33;19957;-87
2021/05/12 17:20:52;;;;;;;;;;;;;;;;;;4251943;33;19962;-89
2021/05/12 17:23:24;;;;;;;;;;;;;;;;;;4274538;33;19965;-87
2021/05/12 17:25:55;;;;;;;;;;;;;;;;;;4265781;33;19958;-85
2021/05/12 17:28:29;;;;;;;;;;;;;;;;;;4254581;33;19976;-89
2021/05/12 17:31:14;;;;;;;;;;;;;;;;;;4285498;33;19965;-85
2021/05/12 17:33:54;;;;;;;;;;;;;;;;;;4273977;33;20340;-90
2021/05/12 17:36:25;;;;;;;;;;;;;;;;;;4286399;33;20001;-87
2021/05/12 17:38:55;;;;;;;;;;;;;;;;;;4263126;33;20028;-84
2021/05/12 17:41:41;;;;;;;;;;;;;;;;;;4283094;33;19977;-83
2021/05/12 17:44:10;;;;;;;;;;;;;;;;;;4261871;33;20127;-88
2021/05/12 17:46:46;;;;;;;;;;;;;;;;;;4286977;33;19992;-86
2021/05/12 17:49:20;;;;;;;;;;;;;;;;;;4266678;33;20479;-90
2021/05/12 17:51:57;;;;;;;;;;;;;;;;;;4291614;33;20406;-87
2021/05/12 17:54:29;;;;;;;;;;;;;;;;;;4291429;33;19961;-88
2021/05/12 17:57:06;;;;;;;;;;;;;;;;;;4259421;33;20000;-87
2021/05/12 17:59:37;;;;;;;;;;;;;;;;;;4263691;33;19973;-86
2021/05/12 18:02:11;;;;;;;;;;;;;;;;;;4261657;33;20016;-91
2021/05/12 18:04:48;;;;;;;;;;;;;;;;;;4261106;33;19964;-88
2021/05/12 18:07:27;;;;;;;;;;;;;;;;;;4295735;33;20145;-86
2021/05/12 18:10:02;;;;;;;;;;;;;;;;;;4273616;33;19957;-85
2021/05/12 18:12:42;;;;;;;;;;;;;;;;;;4260941;33;20368;-86
2021/05/12 18:18:05;;;;;;;;;;;;;;;;;;4291750;33;19998;-89
2021/05/12 18:20:37;;;;;;;;;;;;;;;;;;4292062;33;20290;-85
2021/05/12 18:23:05;;;;;;;;;;;;;;;;;;4283826;33;19984;-92
2021/05/12 18:25:40;;;;;;;;;;;;;;;;;;4270706;33;19964;-88
2021/05/12 18:28:11;;;;;;;;;;;;;;;;;;4277406;33;20223;-89
2021/05/12 18:30:50;;;;;;;;;;;;;;;;;;4287374;33;20358;-92
2021/05/12 18:33:26;;;;;;;;;;;;;;;;;;4248370;33;19970;-89
2021/05/12 18:36:10;;;;;;;;;;;;;;;;;;4261198;33;20335;-87
2021/05/12 18:38:54;;;;;;;;;;;;;;;;;;4261050;33;19965;-89
2021/05/12 18:41:30;;;;;;;;;;;;;;;;;;4250753;33;20025;-87
2021/05/12 18:44:09;;;;;;;;;;;;;;;;;;4252280;33;20201;-89
2021/05/12 18:46:48;;;;;;;;;;;;;;;;;;4264201;33;19976;-91
2021/05/12 18:49:21;;;;;;;;;;;;;;;;;;4279442;33;19986;-88
2021/05/12 18:51:53;;;;;;;;;;;;;;;;;;4276264;33;20028;-87
2021/05/12 18:54:35;;;;;;;;;;;;;;;;;;4250060;33;20495;-86
2021/05/12 18:57:06;;;;;;;;;;;;;;;;;;4267508;33;19958;-94
2021/05/12 18:59:42;;;;;;;;;;;;;;;;;;4251740;33;19965;-88
2021/05/12 19:02:15;;;;;;;;;;;;;;;;;;4257895;33;20571;-87
2021/05/12 19:04:48;;;;;;;;;;;;;;;;;;4278702;33;19972;-89
2021/05/12 19:16:32;;;;;;;;;;;;;;;;;;4255870;33;19961;-91
2021/05/12 19:22:15;;;;;;;;;;;;;;;;;;4272118;33;19965;-90
2021/05/12 19:45:14;;;;;;;;;;;;;;;;;;4227755;33;19963;-91
2021/05/12 19:47:48;;;;;;;;;;;;;;;;;;4226790;33;20056;-92
2021/05/12 19:50:44;;;;;;;;;;;;;;;;;;4203396;33;20362;-87
2021/05/12 19:53:17;;;;;;;;;;;;;;;;;;4219982;33;19990;-90
2021/05/12 19:58:42;;;;;;;;;;;;;;;;;;4240366;33;20332;-90
2021/05/12 20:01:13;;;;;;;;;;;;;;;;;;4214287;33;19962;-89